Time;durP1;ratioP1;P1;durP2;ratioP2;P2;SDS_P1;SDS_P2;PMS_P1;PMS_P2;Temp;Humidity;BMP_temperature;BMP_pressure;BME280_temperature;BME280_humidity;BME280_pressure;Samples;Min_cycle;Max_cycle;Signal;HPM_P1;HPM_P2
2024/04/22 00:00:31;;;;;;;;;;;4.00;99.90;;;;;;5443474;26;20007;-82
2024/04/22 00:02:57;;;;;;;0.52;0.52;;;4.10;99.90;;;;;;5444621;26;19933;-82
2024/04/22 00:05:23;;;;;;;;;;;4.00;99.90;;;;;;5446890;26;20013;-80
2024/04/22 00:07:52;;;;;;;0.60;0.60;;;3.80;99.90;;;;;;5445197;26;19949;-82
2024/04/22 00:10:17;;;;;;;0.60;0.60;;;3.80;99.90;;;;;;5439062;26;20045;-84
2024/04/22 00:12:46;;;;;;;0.60;0.60;;;3.70;99.90;;;;;;5443598;26;19999;-81
2024/04/22 00:15:12;;;;;;;0.70;0.70;;;3.60;99.90;;;;;;5447273;26;20036;-82
2024/04/22 00:17:37;;;;;;;0.70;0.70;;;4.50;99.90;;;;;;5450741;26;20332;-82
2024/04/22 00:34:48;;;;;;;0.55;0.55;;;3.00;99.90;;;;;;5625077;21;20463;-77
2024/04/22 02:35:28;;;;;;;0.60;0.60;;;1.70;99.90;;;;;;5295543;24;20024;-82
2024/04/22 02:37:57;;;;;;;0.80;0.80;;;1.70;99.90;;;;;;4797026;29;20105;-82
2024/04/22 02:40:23;;;;;;;0.70;0.70;;;1.60;99.90;;;;;;4823493;29;20420;-82
2024/04/22 02:42:48;;;;;;;0.70;0.70;;;2.50;99.90;;;;;;4853824;29;20023;-82
2024/04/22 02:45:14;;;;;;;0.70;0.70;;;1.60;99.90;;;;;;4823905;29;20475;-81
2024/04/22 02:47:40;;;;;;;0.70;0.70;;;1.50;99.90;;;;;;4841358;29;20072;-82
2024/04/22 02:50:06;;;;;;;0.80;0.80;;;1.90;99.90;;;;;;4818655;29;20034;-81
2024/04/22 02:52:32;;;;;;;0.70;0.70;;;1.60;99.90;;;;;;4851637;29;20026;-83
2024/04/22 02:54:57;;;;;;;0.73;0.73;;;1.60;99.90;;;;;;4816689;29;20419;-83
2024/04/22 02:57:23;;;;;;;0.80;0.80;;;1.60;99.90;;;;;;4844249;29;20265;-83
2024/04/22 02:59:49;;;;;;;0.70;0.70;;;1.70;99.90;;;;;;4817623;29;20023;-83
2024/04/22 03:02:15;;;;;;;0.60;0.60;;;2.10;99.90;;;;;;4820158;29;20059;-83
2024/04/22 03:04:41;;;;;;;0.70;0.70;;;1.80;99.90;;;;;;4813887;29;20016;-77
2024/04/22 03:07:07;;;;;;;0.70;0.70;;;1.80;99.90;;;;;;4795491;29;20012;-83
2024/04/22 03:09:39;;;;;;;0.60;0.60;;;1.80;99.90;;;;;;4845552;29;20016;-81
2024/04/22 03:12:25;;;;;;;0.60;0.60;;;1.90;99.90;;;;;;4798251;29;20023;-78
2024/04/22 03:14:50;;;;;;;0.70;0.70;;;2.00;99.90;;;;;;4814883;29;21269;-81
2024/04/22 03:17:16;;;;;;;0.60;0.60;;;3.20;99.90;;;;;;4814911;29;20440;-81
2024/04/22 03:19:42;;;;;;;0.60;0.60;;;2.00;99.90;;;;;;4849229;29;20368;-82
2024/04/22 03:22:15;;;;;;;0.60;0.60;;;2.10;99.90;;;;;;4822814;29;20432;-80
2024/04/22 03:24:40;;;;;;;0.70;0.70;;;2.10;99.90;;;;;;4795162;29;20020;-82
2024/04/22 03:27:06;;;;;;;0.65;0.65;;;2.20;99.90;;;;;;4816954;29;20020;-81
2024/04/22 03:29:32;;;;;;;0.60;0.60;;;2.20;99.90;;;;;;4802832;29;20020;-82
2024/04/22 03:31:58;;;;;;;0.60;0.60;;;2.80;99.90;;;;;;4820596;29;20035;-80
2024/04/22 03:34:26;;;;;;;0.70;0.70;;;2.40;99.90;;;;;;4848799;29;20020;-82
2024/04/22 03:37:12;;;;;;;0.50;0.50;;;2.90;99.90;;;;;;4795848;29;20041;-82
2024/04/22 03:39:38;;;;;;;0.70;0.70;;;2.50;99.90;;;;;;4818584;29;20433;-82
2024/04/22 03:42:04;;;;;;;0.70;0.70;;;2.40;99.90;;;;;;4790018;29;20099;-81
2024/04/22 03:44:30;;;;;;;0.75;0.75;;;2.40;99.90;;;;;;4821312;29;20013;-78
2024/04/22 03:49:51;;;;;;;0.60;0.60;;;2.30;99.90;;;;;;4811078;29;20024;-80
2024/04/22 03:52:18;;;;;;;0.60;0.60;;;2.30;99.90;;;;;;4762428;29;20009;-80
2024/04/22 03:54:57;;;;;;;0.70;0.70;;;2.30;99.90;;;;;;4771287;29;20024;-81
2024/04/22 03:57:23;;;;;;;0.70;0.70;;;2.40;99.90;;;;;;4768418;29;20028;-81
2024/04/22 04:00:09;;;;;;;0.70;0.70;;;2.70;99.90;;;;;;4775124;29;20028;-81
2024/04/22 04:02:35;;;;;;;0.60;0.60;;;2.50;99.90;;;;;;4766498;29;20009;-82
2024/04/22 04:05:00;;;;;;;0.70;0.70;;;2.50;99.90;;;;;;4812157;29;20090;-78
2024/04/22 04:07:46;;;;;;;0.60;0.60;;;2.50;99.90;;;;;;4767482;29;20025;-79
2024/04/22 04:10:15;;;;;;;0.70;0.70;;;2.60;99.90;;;;;;4810822;29;20020;-79
2024/04/22 04:12:40;;;;;;;0.70;0.70;;;2.50;99.90;;;;;;4807677;29;20029;-80
2024/04/22 04:15:06;;;;;;;0.60;0.60;;;2.50;99.90;;;;;;4787298;29;20077;-79
2024/04/22 04:17:52;;;;;;;0.68;0.68;;;2.50;99.90;;;;;;4786816;29;20373;-81
2024/04/22 04:20:18;;;;;;;0.65;0.65;;;2.50;99.90;;;;;;4814674;29;20013;-80
2024/04/22 04:22:44;;;;;;;0.60;0.60;;;2.50;99.90;;;;;;4798429;29;20012;-83
2024/04/22 04:25:09;;;;;;;0.57;0.57;;;2.40;99.90;;;;;;4825245;29;20025;-83
2024/04/22 04:27:35;;;;;;;0.63;0.63;;;2.40;99.90;;;;;;4809388;29;20016;-82
2024/04/22 04:30:01;;;;;;;0.70;0.70;;;2.40;99.90;;;;;;4787335;29;20342;-83
2024/04/22 04:32:30;;;;;;;0.70;0.70;;;2.40;99.90;;;;;;4819668;29;20033;-84
2024/04/22 04:34:56;;;;;;;0.60;0.60;;;2.40;99.90;;;;;;4792776;29;20102;-83
2024/04/22 04:37:21;;;;;;;0.63;0.63;;;2.40;99.90;;;;;;4794185;29;20029;-81
2024/04/22 04:39:49;;;;;;;0.63;0.63;;;2.40;99.90;;;;;;4796791;29;20017;-82
2024/04/22 04:42:15;;;;;;;0.60;0.60;;;2.40;99.90;;;;;;4795717;29;20024;-83
2024/04/22 04:44:41;;;;;;;0.60;0.60;;;2.40;99.90;;;;;;4817610;29;20013;-84
2024/04/22 04:47:06;;;;;;;0.70;0.70;;;2.40;99.90;;;;;;4829303;29;20647;-82
2024/04/22 04:49:32;;;;;;;0.68;0.68;;;2.40;99.90;;;;;;4794104;29;20027;-82
2024/04/22 04:51:58;;;;;;;0.60;0.60;;;2.40;99.90;;;;;;4821798;29;20013;-82
2024/04/22 04:54:24;;;;;;;0.80;0.80;;;2.40;99.90;;;;;;4819952;29;20021;-81
2024/04/22 04:56:49;;;;;;;1.02;1.02;;;3.20;99.90;;;;;;4819809;29;20103;-82
2024/04/22 04:59:15;;;;;;;0.70;0.70;;;2.40;99.90;;;;;;4808753;29;20482;-82
2024/04/22 05:01:41;;;;;;;0.70;0.70;;;3.30;99.90;;;;;;4814260;29;20021;-77
2024/04/22 05:04:09;;;;;;;0.60;0.60;;;2.70;99.90;;;;;;4808849;29;20017;-76
2024/04/22 05:06:35;;;;;;;0.68;0.68;;;2.50;99.90;;;;;;4821269;29;20020;-75
2024/04/22 05:09:02;;;;;;;0.60;0.60;;;2.50;99.90;;;;;;4810601;29;20029;-76
2024/04/22 05:11:28;;;;;;;0.60;0.60;;;2.60;99.90;;;;;;4813620;29;20013;-74
2024/04/22 05:13:54;;;;;;;0.65;0.65;;;2.60;99.90;;;;;;4788319;29;20016;-76
2024/04/22 05:16:20;;;;;;;0.60;0.60;;;2.70;99.90;;;;;;4811813;29;20076;-75
2024/04/22 05:18:46;;;;;;;0.70;0.70;;;2.70;99.90;;;;;;4818651;29;20035;-76
2024/04/22 05:21:12;;;;;;;0.68;0.68;;;2.80;99.90;;;;;;4813214;29;20056;-76
2024/04/22 05:23:47;;;;;;;0.57;0.57;;;2.80;99.90;;;;;;4763033;29;20017;-76
2024/04/22 05:26:13;;;;;;;0.65;0.65;;;2.90;99.90;;;;;;4807679;29;20096;-78
2024/04/22 05:28:39;;;;;;;;;;;3.20;99.90;;;;;;4797446;29;20028;-76
2024/04/22 05:31:05;;;;;;;0.70;0.70;;;4.60;99.90;;;;;;4786326;29;19942;-74
2024/04/22 05:36:15;;;;;;;0.50;0.50;;;3.20;99.90;;;;;;4804307;29;20036;-72
2024/04/22 05:38:44;;;;;;;0.57;0.57;;;3.30;99.90;;;;;;4803856;29;20013;-74
2024/04/22 05:41:12;;;;;;;0.63;0.63;;;3.70;99.90;;;;;;4810194;29;20032;-75
2024/04/22 05:43:38;;;;;;;0.60;0.60;;;3.40;99.90;;;;;;4812161;29;20017;-74
2024/04/22 05:46:08;;;;;;;0.60;0.60;;;3.50;99.90;;;;;;4788422;29;20489;-75
2024/04/22 05:48:34;;;;;;;11.27;2.08;;;3.60;99.90;;;;;;4811983;29;20021;-78
2024/04/22 05:51:01;;;;;;;0.60;0.60;;;3.70;99.90;;;;;;4786886;29;20730;-75
2024/04/22 05:53:27;;;;;;;0.70;0.70;;;3.80;99.90;;;;;;4811937;29;20021;-74
2024/04/22 05:55:53;;;;;;;0.60;0.60;;;3.90;99.90;;;;;;4788228;29;20013;-73
2024/04/22 05:58:19;;;;;;;0.65;0.65;;;4.00;99.90;;;;;;4810768;29;20520;-72
2024/04/22 06:00:44;;;;;;;0.73;0.73;;;4.00;99.90;;;;;;4818263;29;20021;-72
2024/04/22 06:03:10;;;;;;;0.70;0.70;;;4.10;99.90;;;;;;4790548;29;20020;-82
2024/04/22 06:05:36;;;;;;;0.60;0.60;;;4.20;99.90;;;;;;4768665;29;20021;-79
2024/04/22 06:08:02;;;;;;;0.60;0.60;;;4.30;99.90;;;;;;4771618;29;20104;-77
2024/04/22 06:10:30;;;;;;;0.60;0.60;;;4.30;99.90;;;;;;4796193;29;20035;-79
2024/04/22 06:12:56;;;;;;;0.50;0.50;;;5.60;99.90;;;;;;4829538;29;20027;-79
2024/04/22 06:15:22;;;;;;;0.70;0.70;;;4.80;99.90;;;;;;4799766;29;20032;-80
2024/04/22 06:17:48;;;;;;;0.70;0.70;;;5.90;99.90;;;;;;4795794;29;20053;-80
2024/04/22 06:20:14;;;;;;;0.60;0.60;;;4.60;99.90;;;;;;4818484;29;20017;-80
2024/04/22 06:22:40;;;;;;;0.60;0.60;;;4.70;99.90;;;;;;4792466;29;20020;-80
2024/04/22 06:25:07;;;;;;;0.65;0.65;;;5.90;99.90;;;;;;4747107;29;20032;-80
2024/04/22 06:27:33;;;;;;;0.50;0.50;;;4.80;99.90;;;;;;4822111;29;20029;-82
2024/04/22 06:29:59;;;;;;;0.63;0.63;;;6.20;99.90;;;;;;4794510;29;20584;-81
2024/04/22 06:32:24;;;;;;;0.55;0.55;;;5.00;99.90;;;;;;4816967;29;20012;-80
2024/04/22 06:34:50;;;;;;;0.40;0.40;;;5.40;99.90;;;;;;4792625;29;20021;-81
2024/04/22 06:37:16;;;;;;;0.60;0.60;;;6.50;99.90;;;;;;4841510;29;20024;-81
2024/04/22 06:39:42;;;;;;;0.60;0.60;;;5.30;99.90;;;;;;4848331;29;20499;-79
2024/04/22 06:42:08;;;;;;;0.40;0.40;;;5.40;99.90;;;;;;4850508;29;20470;-80
2024/04/22 06:44:34;;;;;;;0.63;0.63;;;5.50;99.90;;;;;;4850383;29;20020;-80
2024/04/22 06:47:00;;;;;;;1.40;1.38;;;5.60;99.90;;;;;;4849381;29;20038;-82
2024/04/22 06:49:26;;;;;;;0.60;0.60;;;5.70;99.90;;;;;;4849716;29;20284;-82
2024/04/22 06:51:52;;;;;;;0.60;0.60;;;6.20;99.90;;;;;;4852238;29;20028;-82
2024/04/22 06:54:18;;;;;;;0.52;0.52;;;5.90;99.90;;;;;;4848815;29;20133;-82
2024/04/22 06:56:44;;;;;;;0.50;0.50;;;6.00;99.90;;;;;;4838829;29;20079;-82
2024/04/22 06:59:10;;;;;;;0.70;0.70;;;6.10;99.90;;;;;;4836241;29;20036;-82
2024/04/22 07:01:36;;;;;;;0.60;0.60;;;6.20;99.90;;;;;;4852434;29;20095;-83
2024/04/22 07:04:02;;;;;;;0.47;0.47;;;6.30;99.90;;;;;;4859725;29;20020;-84
2024/04/22 07:06:27;;;;;;;0.50;0.50;;;6.40;99.90;;;;;;4868604;29;20020;-83
2024/04/22 07:08:53;;;;;;;0.50;0.50;;;6.50;99.90;;;;;;4827297;29;20016;-83
2024/04/22 07:11:19;;;;;;;0.60;0.60;;;6.70;99.90;;;;;;4800962;29;20031;-84
2024/04/22 07:13:45;;;;;;;0.47;0.47;;;7.70;99.90;;;;;;4825514;29;20038;-81
2024/04/22 07:16:13;;;;;;;0.52;0.52;;;7.00;99.90;;;;;;4857088;29;20026;-81
2024/04/22 07:18:39;;;;;;;0.30;0.30;;;7.90;99.90;;;;;;4856335;29;20439;-83
2024/04/22 07:21:05;;;;;;;0.50;0.50;;;6.90;99.90;;;;;;4849230;29;20020;-78
2024/04/22 07:23:31;;;;;;;0.45;0.45;;;7.00;99.90;;;;;;4799568;29;20032;-79
2024/04/22 07:26:01;;;;;;;0.50;0.50;;;7.10;99.90;;;;;;4849581;29;20020;-79
2024/04/22 07:28:27;;;;;;;0.50;0.50;;;7.20;99.90;;;;;;4828685;29;20484;-80
2024/04/22 07:30:53;;;;;;;0.45;0.45;;;7.30;99.90;;;;;;4826617;29;20016;-80
2024/04/22 07:33:20;;;;;;;0.80;0.80;;;7.30;99.90;;;;;;4779444;29;20060;-79
2024/04/22 07:35:49;;;;;;;0.68;0.68;;;7.40;99.90;;;;;;4827648;29;20029;-77
2024/04/22 07:38:21;;;;;;;0.68;0.68;;;7.40;99.90;;;;;;4824240;29;20019;-80
2024/04/22 07:40:47;;;;;;;0.50;0.50;;;7.50;99.90;;;;;;4851482;29;20060;-77
2024/04/22 07:43:17;;;;;;;0.82;0.82;;;7.60;99.90;;;;;;4806651;29;20031;-78
2024/04/22 07:45:43;;;;;;;0.50;0.50;;;7.60;99.90;;;;;;4829541;29;20366;-81
2024/04/22 07:48:09;;;;;;;0.32;0.32;;;7.70;99.90;;;;;;4825102;29;20023;-79
2024/04/22 07:50:37;;;;;;;0.50;0.50;;;7.90;99.90;;;;;;4848333;29;20032;-80
2024/04/22 07:53:03;;;;;;;0.70;0.70;;;8.10;99.90;;;;;;4846150;29;20103;-78
2024/04/22 07:55:29;;;;;;;0.40;0.40;;;8.30;99.90;;;;;;4817742;29;20024;-80
2024/04/22 07:57:55;;;;;;;;;;;8.40;99.90;;;;;;4819626;29;20016;-78
2024/04/22 08:00:21;;;;;;;0.43;0.43;;;8.30;99.90;;;;;;4820484;29;19934;-80
2024/04/22 08:02:47;;;;;;;0.32;0.32;;;8.40;99.90;;;;;;4818924;29;20103;-78
2024/04/22 08:05:13;;;;;;;;;;;8.50;99.90;;;;;;4856602;29;20032;-80
2024/04/22 08:07:40;;;;;;;0.55;0.55;;;8.40;99.90;;;;;;4823347;29;20255;-78
2024/04/22 08:10:06;;;;;;;0.30;0.30;;;8.50;99.90;;;;;;4803542;29;20031;-78
2024/04/22 08:12:32;;;;;;;0.55;0.55;;;8.50;99.90;;;;;;4856314;29;20099;-80
2024/04/22 08:14:59;;;;;;;0.50;0.50;;;8.50;99.90;;;;;;4816038;29;20111;-82
2024/04/22 08:17:28;;;;;;;0.50;0.50;;;8.50;99.90;;;;;;4847977;29;20016;-81
2024/04/22 08:19:54;;;;;;;0.50;0.50;;;8.40;99.90;;;;;;4825497;29;20019;-80
2024/04/22 08:22:20;;;;;;;0.40;0.40;;;8.30;99.90;;;;;;4860723;29;20020;-81
2024/04/22 08:24:46;;;;;;;0.50;0.50;;;8.30;99.90;;;;;;4797323;29;20020;-77
2024/04/22 08:27:13;;;;;;;0.50;0.50;;;8.30;99.90;;;;;;4832745;29;20027;-79
2024/04/22 08:29:39;;;;;;;0.90;0.85;;;8.30;99.90;;;;;;4826026;29;20455;-78
2024/04/22 08:32:06;;;;;;;0.40;0.40;;;8.40;99.90;;;;;;4855702;29;20019;-81
2024/04/22 08:34:32;;;;;;;0.40;0.40;;;8.50;99.90;;;;;;4855392;29;20028;-83
2024/04/22 08:36:58;;;;;;;0.40;0.40;;;8.50;99.90;;;;;;4850358;29;20083;-83
2024/04/22 08:39:24;;;;;;;0.50;0.50;;;8.60;99.90;;;;;;4809664;29;20020;-80
2024/04/22 08:41:50;;;;;;;0.50;0.50;;;8.60;98.50;;;;;;4837472;29;20031;-82
2024/04/22 08:44:16;;;;;;;0.40;0.40;;;8.70;99.90;;;;;;4836750;29;20472;-82
2024/04/22 08:46:42;;;;;;;0.50;0.50;;;8.60;99.90;;;;;;4829905;29;20056;-82
2024/04/22 08:49:08;;;;;;;0.52;0.52;;;7.60;99.90;;;;;;4848447;29;20031;-83
2024/04/22 08:51:36;;;;;;;0.60;0.60;;;8.30;99.90;;;;;;4827110;29;20122;-80
2024/04/22 08:54:02;;;;;;;0.47;0.47;;;8.20;99.90;;;;;;4859042;29;20035;-81
2024/04/22 08:56:30;;;;;;;0.55;0.55;;;7.90;99.90;;;;;;4855468;29;20771;-81
2024/04/22 08:58:56;;;;;;;0.40;0.40;;;7.70;98.10;;;;;;4851255;29;20024;-82
2024/04/22 09:01:22;;;;;;;0.40;0.40;;;7.90;99.90;;;;;;4859149;29;20042;-82
2024/04/22 09:03:48;;;;;;;0.45;0.45;;;6.50;99.90;;;;;;4836851;29;20031;-82
2024/04/22 09:06:14;;;;;;;0.50;0.50;;;7.90;99.90;;;;;;4853048;29;20032;-82
2024/04/22 09:08:42;;;;;;;0.52;0.52;;;7.90;99.90;;;;;;4852935;29;20548;-82
2024/04/22 09:11:13;;;;;;;0.50;0.50;;;8.00;99.90;;;;;;4864279;29;20094;-83
2024/04/22 09:13:39;;;;;;;0.40;0.40;;;8.10;99.90;;;;;;4865197;29;20031;-82
2024/04/22 09:16:05;;;;;;;0.57;0.57;;;8.10;99.90;;;;;;4868915;29;20020;-83
2024/04/22 09:18:33;;;;;;;;;;;8.30;99.90;;;;;;4866209;29;20464;-83
2024/04/22 09:21:08;;;;;;;0.30;0.30;;;8.40;99.90;;;;;;4860098;29;19983;-80
2024/04/22 09:23:35;;;;;;;0.40;0.40;;;8.40;99.90;;;;;;4861159;29;20019;-82
2024/04/22 09:26:01;;;;;;;0.30;0.30;;;8.50;99.90;;;;;;4852499;29;20048;-82
2024/04/22 09:28:27;;;;;;;;;;;8.70;99.90;;;;;;4827973;29;20032;-83
2024/04/22 09:30:53;;;;;;;0.50;0.50;;;8.70;99.30;;;;;;4852619;29;19945;-82
2024/04/22 09:33:26;;;;;;;0.50;0.50;;;9.20;99.90;;;;;;4864570;29;20019;-82
2024/04/22 09:35:52;;;;;;;0.40;0.40;;;9.30;99.00;;;;;;4849363;29;20024;-81
2024/04/22 09:38:19;;;;;;;0.73;0.73;;;9.60;99.90;;;;;;4838001;29;20480;-83
2024/04/22 09:40:45;;;;;;;0.55;0.55;;;9.60;98.90;;;;;;4852038;29;20479;-81
2024/04/22 09:43:13;;;;;;;0.40;0.40;;;9.70;99.90;;;;;;4828718;29;20019;-81
2024/04/22 09:45:41;;;;;;;0.60;0.60;;;9.70;99.90;;;;;;4834866;29;20026;-81
2024/04/22 09:48:07;;;;;;;0.45;0.45;;;9.60;96.70;;;;;;4866704;29;20041;-82
2024/04/22 09:50:33;;;;;;;;;;;9.70;98.30;;;;;;4858196;29;20028;-81
2024/04/22 09:53:00;;;;;;;0.30;0.30;;;9.80;99.70;;;;;;4859205;29;20378;-82
2024/04/22 09:55:31;;;;;;;0.60;0.60;;;10.00;97.40;;;;;;4850276;29;20072;-80
2024/04/22 09:57:59;;;;;;;0.50;0.50;;;10.00;99.90;;;;;;4827125;29;20020;-80
2024/04/22 10:00:25;;;;;;;0.38;0.38;;;9.90;95.90;;;;;;4857259;29;20028;-82
2024/04/22 10:02:54;;;;;;;0.30;0.30;;;9.90;99.00;;;;;;4859235;29;20096;-83
2024/04/22 10:05:22;;;;;;;0.32;0.32;;;9.90;97.90;;;;;;4829592;29;20035;-79
2024/04/22 10:07:48;;;;;;;0.40;0.40;;;9.70;94.50;;;;;;4822411;29;20020;-82
2024/04/22 10:10:17;;;;;;;0.45;0.45;;;9.40;99.90;;;;;;4848477;29;20107;-83
2024/04/22 10:12:43;;;;;;;0.38;0.38;;;9.30;97.30;;;;;;4863845;29;20020;-82
2024/04/22 10:15:16;;;;;;;0.40;0.40;;;9.70;98.70;;;;;;4819667;29;20020;-82
2024/04/22 10:17:45;;;;;;;0.40;0.40;;;9.70;99.90;;;;;;4823038;29;20021;-82
2024/04/22 10:20:11;;;;;;;0.45;0.45;;;9.60;97.50;;;;;;4853098;29;20016;-81
2024/04/22 10:22:44;;;;;;;0.35;0.35;;;9.60;99.90;;;;;;4837462;29;20020;-82
2024/04/22 10:25:17;;;;;;;0.40;0.40;;;9.60;97.50;;;;;;4855023;29;20028;-82
2024/04/22 10:27:42;;;;;;;0.30;0.30;;;9.40;98.60;;;;;;4861838;29;20016;-83
2024/04/22 10:30:09;;;;;;;;;;;9.70;99.90;;;;;;4860931;29;20035;-81
2024/04/22 10:32:34;;;;;;;1.58;0.55;;;9.80;99.40;;;;;;4862967;29;20391;-80
2024/04/22 10:35:00;;;;;;;0.40;0.40;;;9.80;99.90;;;;;;4849807;29;20027;-83
2024/04/22 10:37:26;;;;;;;0.30;0.30;;;9.70;99.90;;;;;;4849271;29;20065;-83
2024/04/22 10:39:52;;;;;;;0.40;0.40;;;9.50;99.40;;;;;;4848354;29;20028;-82
2024/04/22 10:42:19;;;;;;;0.40;0.40;;;9.40;99.40;;;;;;4852673;29;20038;-81
2024/04/22 10:44:45;;;;;;;0.30;0.30;;;9.40;99.00;;;;;;4827611;29;20486;-81
2024/04/22 10:47:12;;;;;;;0.40;0.40;;;9.40;99.90;;;;;;4864213;29;20032;-80
2024/04/22 10:49:38;;;;;;;0.50;0.50;;;9.30;99.90;;;;;;4857383;29;20376;-81
2024/04/22 10:52:04;;;;;;;0.40;0.40;;;9.20;98.10;;;;;;4832507;29;20453;-80
2024/04/22 10:54:30;;;;;;;0.50;0.50;;;9.20;99.70;;;;;;4823973;29;20020;-79
2024/04/22 10:56:56;;;;;;;0.50;0.50;;;9.10;96.20;;;;;;4859042;29;20037;-83
2024/04/22 10:59:22;;;;;;;0.43;0.43;;;9.10;96.20;;;;;;4856891;29;20275;-82
2024/04/22 11:01:49;;;;;;;0.32;0.32;;;9.20;96.30;;;;;;4858504;29;20020;-82
2024/04/22 11:04:15;;;;;;;0.40;0.40;;;8.90;96.70;;;;;;4860789;29;20020;-81
2024/04/22 11:06:41;;;;;;;0.40;0.40;;;8.90;96.00;;;;;;4855339;29;20027;-81
2024/04/22 11:09:10;;;;;;;0.40;0.40;;;8.90;98.70;;;;;;4833091;29;20451;-81
2024/04/22 11:11:36;;;;;;;0.40;0.40;;;9.00;96.20;;;;;;4858570;29;20016;-83
2024/04/22 11:14:03;;;;;;;0.50;0.50;;;9.10;97.90;;;;;;4831970;29;20229;-82
2024/04/22 11:16:29;;;;;;;0.43;0.43;;;9.30;96.50;;;;;;4851109;29;20028;-81
2024/04/22 11:19:02;;;;;;;;;;;9.20;96.10;;;;;;4858991;29;20073;-80
2024/04/22 11:21:29;;;;;;;0.40;0.40;;;9.00;94.70;;;;;;4867063;29;19940;-81
2024/04/22 11:23:55;;;;;;;0.40;0.40;;;9.00;95.80;;;;;;4867392;29;20023;-80
2024/04/22 11:26:22;;;;;;;0.40;0.40;;;9.00;96.80;;;;;;4869601;29;20102;-80
2024/04/22 11:28:51;;;;;;;0.40;0.40;;;9.00;98.60;;;;;;4827534;29;20027;-82
2024/04/22 11:31:19;;;;;;;0.47;0.47;;;9.10;95.90;;;;;;4865514;29;20357;-83
2024/04/22 11:33:46;;;;;;;0.45;0.45;;;9.20;96.30;;;;;;4854780;29;20020;-82
2024/04/22 11:36:12;;;;;;;0.40;0.40;;;9.30;96.30;;;;;;4855036;29;20031;-82
2024/04/22 11:38:40;;;;;;;0.55;0.55;;;9.40;97.80;;;;;;4825260;29;20048;-81
2024/04/22 11:41:07;;;;;;;0.40;0.40;;;9.40;94.20;;;;;;4850591;29;20019;-82
2024/04/22 11:43:33;;;;;;;0.40;0.40;;;9.50;94.50;;;;;;4826860;29;20020;-81
2024/04/22 11:46:00;;;;;;;0.38;0.38;;;9.50;92.20;;;;;;4855866;29;20475;-82
2024/04/22 11:48:27;;;;;;;0.50;0.50;;;9.50;95.70;;;;;;4867641;29;20016;-83
2024/04/22 11:50:54;;;;;;;0.40;0.40;;;9.40;93.30;;;;;;4808279;29;20115;-82
2024/04/22 11:53:19;;;;;;;0.40;0.40;;;9.30;96.00;;;;;;4827561;29;20056;-81
2024/04/22 11:55:49;;;;;;;0.40;0.40;;;9.20;95.90;;;;;;4836647;29;20610;-84
2024/04/22 11:58:16;;;;;;;0.47;0.47;;;9.10;96.10;;;;;;4857338;29;20031;-81
2024/04/22 12:00:42;;;;;;;0.30;0.30;;;9.10;97.50;;;;;;4825086;29;20020;-80
2024/04/22 12:03:08;;;;;;;;;;;9.00;95.60;;;;;;4856288;29;20030;-80
2024/04/22 12:05:34;;;;;;;0.50;0.50;;;8.90;94.30;;;;;;4833095;29;19934;-82
2024/04/22 12:08:00;;;;;;;0.50;0.50;;;8.90;93.70;;;;;;4845782;29;20020;-85
2024/04/22 12:10:25;;;;;;;0.40;0.40;;;9.00;95.30;;;;;;4861607;29;20020;-84
2024/04/22 12:12:51;;;;;;;0.40;0.40;;;9.10;96.50;;;;;;4861233;29;20051;-81
2024/04/22 12:15:19;;;;;;;0.40;0.40;;;9.10;97.00;;;;;;4863356;29;20028;-81
2024/04/22 12:17:48;;;;;;;0.43;0.43;;;9.10;93.10;;;;;;4860374;29;20030;-81
2024/04/22 12:20:14;;;;;;;0.40;0.40;;;9.10;95.40;;;;;;4845137;29;20024;-79
2024/04/22 12:22:40;;;;;;;0.40;0.40;;;9.10;94.40;;;;;;4852539;29;20016;-82
2024/04/22 12:25:06;;;;;;;0.30;0.30;;;9.20;96.70;;;;;;4858161;29;20080;-81
2024/04/22 12:27:32;;;;;;;0.40;0.40;;;9.20;92.80;;;;;;4860050;29;20020;-80
2024/04/22 12:29:58;;;;;;;0.40;0.40;;;9.20;92.60;;;;;;4850978;29;20520;-82
2024/04/22 12:32:25;;;;;;;0.40;0.40;;;9.30;92.50;;;;;;4823042;29;20028;-82
2024/04/22 12:34:50;;;;;;;0.45;0.45;;;9.40;90.90;;;;;;4827104;29;20901;-81
2024/04/22 12:37:17;;;;;;;0.77;0.77;;;9.60;94.60;;;;;;4835586;29;20016;-84
2024/04/22 12:39:43;;;;;;;0.43;0.43;;;9.90;94.80;;;;;;4822478;29;20031;-81
2024/04/22 12:42:09;;;;;;;0.40;0.40;;;9.90;94.60;;;;;;4854154;29;20027;-81
2024/04/22 12:44:35;;;;;;;0.40;0.40;;;9.80;94.50;;;;;;4835499;29;20024;-81
2024/04/22 12:52:31;;;;;;;0.40;0.40;;;9.80;91.40;;;;;;4846534;29;20031;-81
2024/04/22 12:54:57;;;;;;;0.40;0.40;;;10.00;92.30;;;;;;4846163;29;20036;-80
2024/04/22 12:57:23;;;;;;;0.30;0.30;;;10.10;92.10;;;;;;4837348;29;20067;-81
2024/04/22 12:59:49;;;;;;;0.47;0.47;;;10.00;93.10;;;;;;4861053;29;20472;-84
2024/04/22 13:02:14;;;;;;;0.40;0.40;;;10.00;92.60;;;;;;4852826;29;20020;-82
2024/04/22 13:04:40;;;;;;;0.40;0.40;;;9.80;91.40;;;;;;4845827;29;20496;-81
2024/04/22 13:07:06;;;;;;;0.95;0.95;;;9.80;92.50;;;;;;4844949;29;20039;-81
2024/04/22 13:09:34;;;;;;;0.43;0.43;;;9.80;92.40;;;;;;4839449;29;20026;-81
2024/04/22 13:12:02;;;;;;;0.30;0.30;;;10.10;92.20;;;;;;4854279;29;20119;-82
2024/04/22 13:14:28;;;;;;;0.30;0.30;;;10.60;91.20;;;;;;4840830;29;20020;-81
2024/04/22 13:16:53;;;;;;;0.40;0.40;;;10.90;86.40;;;;;;4847057;29;20020;-81
2024/04/22 13:19:19;;;;;;;;;;;11.20;92.80;;;;;;4848200;29;20020;-84
2024/04/22 13:21:45;;;;;;;0.40;0.40;;;11.10;90.60;;;;;;4851727;29;20266;-82
2024/04/22 13:24:11;;;;;;;0.30;0.30;;;11.00;94.20;;;;;;4844150;29;20031;-81
2024/04/22 13:26:37;;;;;;;0.30;0.30;;;10.80;97.00;;;;;;4828002;29;20020;-81
2024/04/22 13:29:04;;;;;;;0.73;0.73;;;10.80;94.20;;;;;;4848503;29;20020;-82
2024/04/22 13:31:30;;;;;;;0.55;0.55;;;10.60;89.90;;;;;;4821870;29;20099;-82
2024/04/22 13:33:55;;;;;;;;;;;10.60;96.00;;;;;;4811427;29;20031;-83
2024/04/22 13:36:23;;;;;;;;;;;10.80;93.40;;;;;;4852851;29;19946;-82
2024/04/22 13:38:50;;;;;;;0.70;0.70;;;10.80;90.00;;;;;;4827559;29;20313;-82
2024/04/22 13:41:16;;;;;;;0.30;0.30;;;10.80;90.80;;;;;;4865572;29;20030;-81
2024/04/22 13:43:42;;;;;;;0.30;0.30;;;11.20;91.00;;;;;;4858037;29;20020;-84
2024/04/22 13:46:08;;;;;;;0.30;0.30;;;11.40;89.20;;;;;;4856429;29;20030;-80
2024/04/22 13:48:33;;;;;;;0.20;0.20;;;11.50;91.40;;;;;;4848417;29;20072;-81
2024/04/22 13:50:59;;;;;;;;;;;11.50;94.80;;;;;;4826197;29;20032;-79
2024/04/22 13:53:25;;;;;;;0.40;0.40;;;11.50;96.30;;;;;;4847275;29;19946;-80
2024/04/22 13:55:51;;;;;;;0.30;0.30;;;11.40;96.30;;;;;;4824369;29;20099;-81
2024/04/22 13:58:17;;;;;;;0.30;0.30;;;11.40;94.10;;;;;;4857530;29;20032;-80
2024/04/22 14:00:42;;;;;;;;;;;11.40;96.30;;;;;;4825981;29;20031;-80
2024/04/22 14:03:08;;;;;;;0.20;0.20;;;11.50;96.30;;;;;;4829203;29;19942;-83
2024/04/22 14:05:34;;;;;;;0.22;0.22;;;11.50;92.70;;;;;;4855646;29;20019;-84
2024/04/22 14:08:00;;;;;;;0.30;0.30;;;12.60;92.70;;;;;;4861634;29;20052;-83
2024/04/22 14:10:27;;;;;;;0.30;0.30;;;12.10;91.80;;;;;;4859582;29;20032;-83
2024/04/22 14:12:53;;;;;;;0.55;0.40;;;12.10;90.90;;;;;;4833295;29;20052;-86
2024/04/22 14:15:19;;;;;;;0.52;0.40;;;12.40;94.00;;;;;;4849111;29;20020;-82
2024/04/22 14:17:44;;;;;;;;;;;12.50;90.60;;;;;;4849518;29;20020;-83
2024/04/22 14:20:10;;;;;;;0.20;0.20;;;12.30;94.20;;;;;;4857024;29;19942;-83
2024/04/22 14:22:36;;;;;;;;;;;12.60;92.60;;;;;;4826398;29;20028;-81
2024/04/22 14:25:02;;;;;;;0.20;0.20;;;12.60;91.10;;;;;;4864597;29;19987;-82
2024/04/22 14:27:27;;;;;;;;;;;12.50;92.90;;;;;;4850907;29;20110;-82
2024/04/22 14:29:53;;;;;;;0.30;0.30;;;12.70;96.20;;;;;;4826488;29;19935;-81
2024/04/22 14:32:19;;;;;;;0.30;0.30;;;12.80;96.30;;;;;;4853881;29;20107;-81
2024/04/22 14:34:45;;;;;;;;;;;12.60;96.90;;;;;;4854226;29;20020;-82
2024/04/22 14:37:11;;;;;;;0.45;0.45;;;12.70;89.80;;;;;;4848117;29;20303;-82
2024/04/22 14:39:38;;;;;;;0.30;0.30;;;12.80;92.00;;;;;;4849941;29;20022;-80
2024/04/22 14:42:05;;;;;;;0.38;0.38;;;12.70;93.90;;;;;;4823147;29;20439;-82
2024/04/22 14:44:32;;;;;;;0.25;0.25;;;12.70;94.40;;;;;;4864276;29;20019;-83
2024/04/22 14:46:58;;;;;;;0.60;0.60;;;12.70;92.40;;;;;;4834599;29;20027;-83
2024/04/22 14:49:24;;;;;;;0.30;0.30;;;12.40;91.20;;;;;;4850583;29;20376;-83
2024/04/22 14:51:50;;;;;;;0.40;0.40;;;12.30;92.50;;;;;;4839763;29;20485;-81
2024/04/22 14:54:16;;;;;;;;;;;13.00;92.70;;;;;;4828054;29;20095;-83
2024/04/22 14:56:42;;;;;;;1.27;1.27;;;14.00;92.60;;;;;;4820651;29;19935;-83
2024/04/22 14:59:08;;;;;;;1.25;0.82;;;13.90;87.90;;;;;;4846966;29;20044;-82
2024/04/22 15:01:34;;;;;;;0.30;0.30;;;13.20;90.30;;;;;;4848593;29;20500;-82
2024/04/22 15:04:00;;;;;;;0.30;0.30;;;12.30;89.00;;;;;;4847089;29;20020;-82
2024/04/22 15:06:26;;;;;;;0.40;0.40;;;11.40;91.50;;;;;;4803807;29;20100;-83
2024/04/22 15:08:53;;;;;;;;;;;11.20;90.20;;;;;;4853168;29;20020;-84
2024/04/22 15:11:20;;;;;;;0.20;0.20;;;11.90;92.10;;;;;;4826738;29;19942;-81
2024/04/22 15:13:46;;;;;;;0.40;0.40;;;12.20;90.00;;;;;;4823518;29;20012;-83
2024/04/22 15:16:13;;;;;;;0.20;0.20;;;12.20;90.30;;;;;;4858173;29;20031;-82
2024/04/22 15:18:40;;;;;;;0.30;0.30;;;12.50;91.30;;;;;;4807044;29;20440;-82
2024/04/22 15:21:05;;;;;;;0.50;0.50;;;12.90;92.20;;;;;;4846907;29;20099;-83